Shattuc, Illinois
Current Conditions -  °F | °C
As of 9:15 PM on Saturday 22 Nov 2014 (Local Time) from KENL Reporting Station
Overcast Overcast  
Wind Chill: 53°   Ceiling: 10000
Heat Index: 53°   Visibility: 10mi
Dew Point: 43°   Wind: 9mph
Humidity: 70%   Direction: 160°SSE
Pressure: 29.94"   Gusts: NA
Location:  38.61°N, 89.19°W
Report Text: KENL 230315Z AUTO 16008KT 10SM SCT050 SCT070 OVC100 12/06 A2994 RMK AO2 T01150063
Loading
Personal Weather Stations






























Interactive Weather Map New forecast layout! Learn more

10-Day Weather Forecast

Advertisements
Track Severe Weather on mobile